Time;durP1;ratioP1;P1;durP2;ratioP2;P2;SDS_P1;SDS_P2;PMS_P1;PMS_P2;Temp;Humidity;BMP_temperature;BMP_pressure;BME280_temperature;BME280_humidity;BME280_pressure;Samples;Min_cycle;Max_cycle;Signal;HPM_P1;HPM_P2
2023/04/03 00:00:23;;;;;;;13.37;11.90;;;0.40;99.90;;;;;;5096547;28;20193;-72
2023/04/03 00:02:49;;;;;;;11.83;10.67;;;0.40;99.90;;;;;;5097065;28;20264;-72
2023/04/03 00:05:15;;;;;;;12.20;9.60;;;0.40;99.90;;;;;;5095371;28;20191;-71
2023/04/03 00:07:40;;;;;;;11.30;10.07;;;0.50;99.90;;;;;;5095272;28;20197;-71
2023/04/03 00:10:07;;;;;;;11.20;10.20;;;0.50;99.90;;;;;;5096602;28;20193;-72
2023/04/03 00:12:33;;;;;;;11.40;10.20;;;0.40;99.90;;;;;;5095230;28;20176;-71
2023/04/03 00:14:58;;;;;;;11.37;10.20;;;0.20;99.90;;;;;;5095003;28;20173;-72
2023/04/03 00:17:24;;;;;;;10.57;9.47;;;0.10;99.90;;;;;;5095466;28;20231;-71
2023/04/03 00:19:50;;;;;;;11.17;10.07;;;0.20;99.90;;;;;;5096627;28;20270;-70
2023/04/03 00:22:16;;;;;;;10.50;9.50;;;0.20;99.90;;;;;;5096323;28;20196;-70
2023/04/03 00:24:42;;;;;;;11.60;10.40;;;0.00;99.90;;;;;;5097007;28;20173;-70
2023/04/03 00:27:07;;;;;;;10.47;9.57;;;0.00;99.90;;;;;;5096172;28;20197;-70
2023/04/03 00:29:33;;;;;;;13.17;10.27;;;0.00;99.90;;;;;;5094595;28;20173;-70
2023/04/03 00:31:59;;;;;;;11.77;9.80;;;0.10;99.90;;;;;;5096026;28;20529;-70
2023/04/03 00:34:25;;;;;;;12.00;10.20;;;0.10;99.90;;;;;;5096608;28;20158;-70
2023/04/03 00:36:51;;;;;;;11.33;10.23;;;0.10;99.90;;;;;;5096003;28;20180;-70
2023/04/03 00:39:17;;;;;;;12.00;10.90;;;0.20;99.90;;;;;;5095848;28;20169;-70
2023/04/03 00:41:42;;;;;;;11.30;10.20;;;0.20;99.90;;;;;;5095702;28;20696;-70
2023/04/03 00:44:22;;;;;;;11.37;10.23;;;0.20;99.90;;;;;;5095844;28;20564;-70
2023/04/03 00:46:48;;;;;;;10.50;9.60;;;0.20;99.90;;;;;;5094421;28;20218;-70
2023/04/03 00:49:14;;;;;;;11.30;10.40;;;0.10;99.90;;;;;;5095622;28;20646;-70
2023/04/03 00:51:40;;;;;;;11.37;10.23;;;0.00;99.90;;;;;;5095588;28;20210;-70
2023/04/03 00:54:07;;;;;;;11.67;10.57;;;-0.10;99.90;;;;;;5094568;28;20262;-70
2023/04/03 00:56:34;;;;;;;11.90;10.70;;;0.00;99.90;;;;;;5095721;28;20557;-70
2023/04/03 00:59:11;;;;;;;11.37;10.27;;;0.10;99.90;;;;;;5093829;28;20307;-70
2023/04/03 01:01:37;;;;;;;11.60;10.50;;;0.20;99.90;;;;;;5095429;28;20272;-71
2023/04/03 01:04:05;;;;;;;12.97;11.67;;;0.20;99.90;;;;;;5095391;28;20173;-70
2023/04/03 01:06:35;;;;;;;13.30;11.90;;;0.20;99.90;;;;;;5094084;28;20181;-70
2023/04/03 01:09:01;;;;;;;12.67;11.57;;;0.20;99.90;;;;;;5093979;28;20673;-70
2023/04/03 01:11:27;;;;;;;13.10;11.70;;;0.20;99.90;;;;;;5095118;28;20610;-70
2023/04/03 01:13:53;;;;;;;12.93;11.70;;;0.20;99.90;;;;;;5094995;28;20226;-70
2023/04/03 01:16:19;;;;;;;13.17;11.83;;;0.20;99.90;;;;;;5093888;28;20198;-70
2023/04/03 01:18:46;;;;;;;12.97;11.67;;;0.20;99.90;;;;;;5093728;28;20173;-71
2023/04/03 01:21:54;;;;;;;12.13;11.03;;;0.00;99.90;;;;;;5094967;28;20191;-70
2023/04/03 01:24:53;;;;;;;12.17;10.87;;;-0.10;99.90;;;;;;5095309;28;20635;-70
2023/04/03 01:27:18;;;;;;;11.50;10.50;;;0.00;99.90;;;;;;5094037;28;20233;-70
2023/04/03 01:29:45;;;;;;;14.33;11.13;;;-0.10;99.90;;;;;;5094635;28;20655;-70
2023/04/03 01:32:11;;;;;;;11.40;10.23;;;-0.20;99.90;;;;;;5095164;28;20177;-70
2023/04/03 01:34:37;;;;;;;12.20;10.97;;;-0.30;99.90;;;;;;5093471;28;20317;-70
2023/04/03 01:37:03;;;;;;;11.73;10.53;;;-0.40;99.90;;;;;;5095022;28;20629;-70
2023/04/03 01:39:28;;;;;;;12.77;11.40;;;-0.50;99.90;;;;;;5093348;28;20268;-70
2023/04/03 01:41:54;;;;;;;11.87;10.53;;;-0.40;99.90;;;;;;5094738;28;20195;-70
2023/04/03 01:44:20;;;;;;;12.57;11.37;;;-0.30;99.90;;;;;;5094451;28;20198;-70
2023/04/03 01:46:46;;;;;;;12.20;11.03;;;-0.30;99.90;;;;;;5094432;28;20173;-70
2023/04/03 01:49:12;;;;;;;15.70;11.00;;;-0.40;99.90;;;;;;5093179;28;20571;-70
2023/04/03 01:51:38;;;;;;;12.20;11.00;;;-0.50;99.90;;;;;;5093152;28;20271;-70
2023/04/03 01:54:04;;;;;;;12.57;11.37;;;-0.60;99.90;;;;;;5093958;28;20227;-70
2023/04/03 01:56:30;;;;;;;13.07;11.87;;;-0.50;99.90;;;;;;5093198;28;20173;-69
2023/04/03 01:58:55;;;;;;;16.17;11.53;;;-0.50;99.90;;;;;;5094099;28;20661;-70
2023/04/03 02:01:21;;;;;;;13.37;12.17;;;-0.40;99.90;;;;;;5094271;28;20193;-70
2023/04/03 02:03:47;;;;;;;13.43;10.77;;;-0.40;99.90;;;;;;5094325;28;20166;-70
2023/04/03 02:06:13;;;;;;;12.40;11.13;;;-0.40;99.90;;;;;;5094215;28;20665;-70
2023/04/03 02:08:40;;;;;;;13.00;11.63;;;-0.30;99.90;;;;;;5092884;28;20220;-70
2023/04/03 02:11:05;;;;;;;14.27;10.87;;;-0.20;99.90;;;;;;5094131;28;20188;-70
2023/04/03 02:13:31;;;;;;;13.47;11.37;;;-0.20;99.90;;;;;;5092737;28;20177;-70
2023/04/03 02:15:57;;;;;;;12.00;10.70;;;-0.10;99.90;;;;;;5094292;28;20177;-70
2023/04/03 02:18:23;;;;;;;13.07;10.27;;;0.00;99.90;;;;;;5092797;28;20211;-70
2023/04/03 02:20:48;;;;;;;11.50;10.30;;;0.10;99.90;;;;;;5093963;28;20243;-70
2023/04/03 02:23:14;;;;;;;10.90;9.80;;;0.10;99.90;;;;;;5093051;28;20185;-71
2023/04/03 02:25:40;;;;;;;13.20;11.00;;;0.10;99.90;;;;;;5093153;28;20177;-72
2023/04/03 02:28:06;;;;;;;11.23;10.20;;;0.00;99.90;;;;;;5094239;28;20224;-71
2023/04/03 02:30:32;;;;;;;10.53;9.43;;;-0.10;99.90;;;;;;5094419;28;20727;-68
2023/04/03 02:32:58;;;;;;;12.57;11.37;;;-0.10;99.90;;;;;;5094034;28;20227;-71
2023/04/03 02:35:24;;;;;;;12.57;11.20;;;-0.20;99.90;;;;;;5094009;28;20645;-71
2023/04/03 02:37:50;;;;;;;11.73;10.27;;;-0.20;99.90;;;;;;5094276;28;20177;-71
2023/04/03 02:40:17;;;;;;;10.93;9.60;;;-0.20;99.90;;;;;;5092466;28;20208;-70
2023/04/03 02:42:43;;;;;;;12.20;9.80;;;-0.20;99.90;;;;;;5092168;28;20224;-71
2023/04/03 02:45:09;;;;;;;9.93;8.90;;;-0.20;99.90;;;;;;5092538;28;20212;-71
2023/04/03 02:47:35;;;;;;;9.33;8.43;;;-0.10;99.90;;;;;;5092483;28;20200;-72
2023/04/03 02:50:01;;;;;;;8.87;8.00;;;-0.10;99.90;;;;;;5093901;28;20847;-72
2023/04/03 02:52:26;;;;;;;10.97;8.30;;;0.00;99.90;;;;;;5093656;28;20256;-71
2023/04/03 02:54:52;;;;;;;9.23;8.30;;;0.00;99.90;;;;;;5093628;28;20672;-71
2023/04/03 02:57:19;;;;;;;9.27;8.07;;;0.00;99.90;;;;;;5092272;28;20185;-72
2023/04/03 02:59:45;;;;;;;8.60;7.80;;;0.10;99.90;;;;;;5093496;28;20189;-71
2023/04/03 03:02:11;;;;;;;8.80;8.07;;;0.10;99.90;;;;;;5093872;28;20188;-71
2023/04/03 03:04:37;;;;;;;10.43;8.13;;;0.20;99.90;;;;;;5093831;28;20200;-71
2023/04/03 03:07:03;;;;;;;8.73;7.73;;;0.20;99.90;;;;;;5097127;28;20254;-71
2023/04/03 03:09:29;;;;;;;7.67;7.07;;;0.20;99.90;;;;;;5097964;28;20184;-71
2023/04/03 03:11:56;;;;;;;8.23;7.53;;;0.20;99.90;;;;;;5096357;28;20168;-71
2023/04/03 03:14:21;;;;;;;8.80;7.93;;;0.30;99.90;;;;;;5097529;28;20197;-71
2023/04/03 03:16:47;;;;;;;8.83;7.70;;;0.30;99.90;;;;;;5097827;28;20583;-71
2023/04/03 03:19:13;;;;;;;8.67;7.83;;;0.40;99.90;;;;;;5097778;28;20583;-71
2023/04/03 03:21:39;;;;;;;7.87;7.27;;;0.40;99.90;;;;;;5097675;28;20197;-71
2023/04/03 03:24:05;;;;;;;13.20;8.30;;;0.40;99.90;;;;;;5097231;28;20192;-71
2023/04/03 03:26:31;;;;;;;10.50;7.80;;;0.40;99.90;;;;;;5096172;28;20185;-71
2023/04/03 03:28:56;;;;;;;8.70;7.77;;;0.40;99.90;;;;;;5097293;28;20193;-71
2023/04/03 03:31:22;;;;;;;12.37;7.77;;;0.40;99.90;;;;;;5097271;28;20258;-71
2023/04/03 03:33:48;;;;;;;12.07;7.57;;;0.40;99.90;;;;;;5097550;28;20204;-71
2023/04/03 03:36:14;;;;;;;7.70;7.00;;;0.40;99.90;;;;;;5096203;28;20169;-71
2023/04/03 03:38:40;;;;;;;7.60;6.80;;;0.40;99.90;;;;;;5097880;28;20168;-71
2023/04/03 03:41:06;;;;;;;9.47;7.67;;;0.40;99.90;;;;;;5097144;28;20200;-71
2023/04/03 03:43:32;;;;;;;9.40;7.27;;;0.40;99.90;;;;;;5095928;28;20181;-71
2023/04/03 03:45:57;;;;;;;8.50;7.67;;;0.40;99.90;;;;;;5097146;28;20177;-71
2023/04/03 03:48:23;;;;;;;8.20;7.43;;;0.30;99.90;;;;;;5095822;28;20200;-71
2023/04/03 03:50:50;;;;;;;11.67;8.00;;;0.20;99.90;;;;;;5097332;28;20189;-71
2023/04/03 03:53:15;;;;;;;8.23;7.50;;;0.10;99.90;;;;;;5096888;28;20238;-71
2023/04/03 03:55:42;;;;;;;7.83;7.23;;;0.00;99.90;;;;;;5096972;28;20173;-71
2023/04/03 03:58:07;;;;;;;8.07;7.27;;;0.00;99.90;;;;;;5094652;28;20538;-71
2023/04/03 04:00:33;;;;;;;8.10;7.50;;;0.00;99.90;;;;;;5094172;28;20262;-71
2023/04/03 04:02:59;;;;;;;9.47;7.30;;;0.00;99.90;;;;;;5094288;28;20173;-71
2023/04/03 04:05:25;;;;;;;8.47;7.77;;;0.00;99.90;;;;;;5095536;28;20586;-71
2023/04/03 04:07:51;;;;;;;7.60;7.00;;;0.00;99.90;;;;;;5095468;28;20250;-71
2023/04/03 04:10:16;;;;;;;7.80;7.20;;;0.00;99.90;;;;;;5095548;28;20197;-71
2023/04/03 04:12:42;;;;;;;9.10;8.27;;;0.00;99.90;;;;;;5095640;28;20252;-71
2023/04/03 04:15:09;;;;;;;9.37;7.93;;;0.00;99.90;;;;;;5094381;28;20165;-70
2023/04/03 04:17:35;;;;;;;9.47;8.40;;;-0.10;99.90;;;;;;5094850;28;20177;-71
2023/04/03 04:20:02;;;;;;;12.90;8.47;;;-0.10;99.90;;;;;;5093756;28;20197;-71
2023/04/03 04:22:28;;;;;;;8.83;8.10;;;-0.10;99.90;;;;;;5095434;28;20260;-71
2023/04/03 04:24:54;;;;;;;8.40;7.70;;;-0.10;99.90;;;;;;5095100;28;20370;-71
2023/04/03 04:27:19;;;;;;;9.13;7.63;;;-0.10;99.90;;;;;;5094965;28;20197;-71
2023/04/03 04:29:45;;;;;;;8.77;7.50;;;-0.20;99.90;;;;;;5093642;28;20193;-71
2023/04/03 04:32:11;;;;;;;9.40;8.50;;;-0.20;99.90;;;;;;5095137;28;20176;-71
2023/04/03 04:34:37;;;;;;;8.60;7.80;;;-0.20;99.90;;;;;;5095612;28;20295;-71
2023/04/03 04:37:02;;;;;;;11.47;7.90;;;-0.20;99.90;;;;;;5093646;28;20180;-71
2023/04/03 04:39:28;;;;;;;7.97;7.27;;;-0.20;99.90;;;;;;5094893;28;20173;-71
2023/04/03 04:41:54;;;;;;;11.77;7.80;;;-0.30;99.90;;;;;;5093544;28;20177;-71
2023/04/03 04:44:20;;;;;;;10.83;7.83;;;-0.30;99.90;;;;;;5093697;28;20719;-71
2023/04/03 04:46:46;;;;;;;8.93;8.00;;;-0.40;99.90;;;;;;5095351;28;20182;-71
2023/04/03 04:49:12;;;;;;;8.33;7.53;;;-0.40;99.90;;;;;;5106911;28;20205;-71
2023/04/03 04:51:37;;;;;;;8.43;7.73;;;-0.40;99.90;;;;;;5105497;28;20241;-71
2023/04/03 04:54:03;;;;;;;8.40;7.60;;;-0.40;99.90;;;;;;5103230;28;20189;-70
2023/04/03 04:56:29;;;;;;;8.73;7.60;;;-0.40;99.90;;;;;;5098836;28;20180;-71
2023/04/03 04:58:55;;;;;;;10.13;8.27;;;-0.40;99.90;;;;;;5051647;28;1271217;-71
2023/04/03 05:01:21;;;;;;;8.97;8.10;;;-0.40;99.90;;;;;;5094492;28;20215;-71
2023/04/03 05:03:47;;;;;;;8.93;8.03;;;-0.50;99.90;;;;;;5094325;28;20188;-71
2023/04/03 05:06:13;;;;;;;8.37;7.47;;;-0.50;99.90;;;;;;5095707;28;20176;-71
2023/04/03 05:08:39;;;;;;;8.73;7.93;;;-0.50;99.90;;;;;;5095440;28;20208;-71
2023/04/03 05:11:05;;;;;;;11.07;8.53;;;-0.50;99.90;;;;;;5095407;28;20188;-71
2023/04/03 05:13:31;;;;;;;10.43;8.30;;;-0.60;99.90;;;;;;5095635;28;20181;-70
2023/04/03 05:15:56;;;;;;;8.70;7.80;;;-0.60;99.90;;;;;;5095260;28;20174;-71
2023/04/03 05:18:22;;;;;;;11.13;7.90;;;-0.60;99.90;;;;;;5095587;28;20184;-70
2023/04/03 05:20:51;;;;;;;11.47;7.80;;;-0.60;99.90;;;;;;5095148;28;20220;-71
2023/04/03 05:23:17;;;;;;;8.40;7.57;;;-0.50;99.90;;;;;;5095014;28;20189;-71
2023/04/03 05:25:45;;;;;;;13.73;8.03;;;-0.50;99.90;;;;;;5095589;28;20180;-71
2023/04/03 05:28:11;;;;;;;10.17;8.30;;;-0.50;99.90;;;;;;5094178;28;20211;-71
2023/04/03 05:30:37;;;;;;;9.00;8.03;;;-0.40;99.90;;;;;;5095013;28;20646;-71
2023/04/03 05:33:03;;;;;;;10.93;8.40;;;-0.30;99.90;;;;;;5094739;28;20176;-71
2023/04/03 05:35:28;;;;;;;11.03;7.63;;;-0.30;99.90;;;;;;5094909;28;20175;-71
2023/04/03 05:37:54;;;;;;;11.27;7.83;;;-0.20;99.90;;;;;;5093586;28;20181;-71
2023/04/03 05:40:20;;;;;;;10.20;8.47;;;-0.20;99.90;;;;;;5094644;28;20197;-67
2023/04/03 05:42:46;;;;;;;12.30;8.20;;;-0.20;99.90;;;;;;5093543;28;20176;-66
2023/04/03 05:45:12;;;;;;;9.30;8.23;;;-0.10;99.90;;;;;;5094362;28;20212;-66
2023/04/03 05:47:37;;;;;;;9.87;7.90;;;-0.10;99.90;;;;;;5094839;28;20558;-66
2023/04/03 05:50:04;;;;;;;10.67;8.00;;;0.00;99.90;;;;;;5094420;28;20197;-66
2023/04/03 05:52:40;;;;;;;9.97;8.93;;;0.10;99.90;;;;;;5093164;28;20239;-66
2023/04/03 05:55:06;;;;;;;8.80;7.90;;;0.20;99.90;;;;;;5094426;28;20533;-67
2023/04/03 05:57:31;;;;;;;10.47;8.87;;;0.30;99.90;;;;;;5092943;28;20192;-67
2023/04/03 05:59:57;;;;;;;10.47;9.20;;;0.30;99.90;;;;;;5092788;28;20204;-67
2023/04/03 06:02:25;;;;;;;10.57;7.87;;;0.30;99.90;;;;;;5094326;28;20187;-67
2023/04/03 06:04:51;;;;;;;13.03;8.33;;;0.40;99.90;;;;;;5094161;28;20173;-67
2023/04/03 06:07:22;;;;;;;15.80;8.87;;;0.50;99.90;;;;;;5094166;28;20196;-67
2023/04/03 06:09:51;;;;;;;10.73;7.87;;;0.50;99.90;;;;;;5093979;28;20193;-67
2023/04/03 06:12:18;;;;;;;8.87;8.07;;;0.60;99.90;;;;;;5092725;28;20205;-67
2023/04/03 06:14:43;;;;;;;9.70;8.20;;;0.60;99.90;;;;;;5094136;28;20169;-67
2023/04/03 06:17:10;;;;;;;14.13;8.40;;;0.70;99.90;;;;;;5093991;28;20200;-67
2023/04/03 06:19:36;;;;;;;11.50;8.50;;;0.80;99.90;;;;;;5094013;28;20230;-67
2023/04/03 06:22:02;;;;;;;9.67;8.67;;;0.90;99.90;;;;;;5093833;28;20174;-67
2023/04/03 06:24:28;;;;;;;8.37;7.67;;;0.90;99.90;;;;;;5094102;28;20198;-67
2023/04/03 06:26:54;;;;;;;9.20;7.90;;;1.00;99.90;;;;;;5093970;28;20194;-67
2023/04/03 06:29:20;;;;;;;10.60;8.73;;;1.10;99.90;;;;;;5092380;28;20209;-67
2023/04/03 06:31:47;;;;;;;10.90;7.80;;;1.20;99.90;;;;;;5094255;28;20246;-67
2023/04/03 06:34:13;;;;;;;10.90;8.33;;;1.30;99.90;;;;;;5093673;28;20594;-67
2023/04/03 06:36:40;;;;;;;11.07;8.03;;;1.30;99.90;;;;;;5092336;28;20211;-67
2023/04/03 06:39:06;;;;;;;8.60;7.83;;;1.40;99.90;;;;;;5093596;28;20181;-67
2023/04/03 06:41:32;;;;;;;11.40;8.10;;;1.50;99.90;;;;;;5093956;28;20697;-67
2023/04/03 06:43:58;;;;;;;12.13;8.07;;;1.60;99.90;;;;;;5093425;28;20177;-67
2023/04/03 06:46:26;;;;;;;13.40;8.00;;;1.60;99.90;;;;;;5092333;28;20195;-67
2023/04/03 06:48:52;;;;;;;8.97;7.23;;;1.80;99.90;;;;;;5092054;28;20216;-67
2023/04/03 06:51:26;;;;;;;9.00;8.07;;;1.80;99.90;;;;;;5093461;28;20188;-67
2023/04/03 06:53:54;;;;;;;9.03;7.40;;;1.90;99.90;;;;;;5093650;28;20173;-67
2023/04/03 06:56:21;;;;;;;8.70;7.87;;;2.00;99.90;;;;;;5093495;28;20585;-67
2023/04/03 06:58:46;;;;;;;13.50;7.93;;;2.00;99.90;;;;;;5093208;28;20192;-67
2023/04/03 07:01:15;;;;;;;8.50;7.57;;;2.10;99.90;;;;;;5093852;28;20250;-67
2023/04/03 07:03:41;;;;;;;9.23;7.40;;;2.20;99.90;;;;;;5093669;28;20673;-67
2023/04/03 07:06:09;;;;;;;7.83;7.10;;;2.30;99.90;;;;;;5093421;28;20181;-67
2023/04/03 07:08:35;;;;;;;8.17;7.47;;;2.30;99.90;;;;;;5093375;28;20232;-67
2023/04/03 07:11:00;;;;;;;9.80;7.73;;;2.50;99.90;;;;;;5091928;28;20293;-67
2023/04/03 07:13:27;;;;;;;9.03;8.17;;;2.50;99.90;;;;;;5093410;28;20165;-67
2023/04/03 07:15:53;;;;;;;8.10;7.40;;;2.60;99.90;;;;;;5093316;28;20178;-67
2023/04/03 07:18:19;;;;;;;12.47;7.50;;;2.70;99.90;;;;;;5092130;28;20662;-67
2023/04/03 07:20:45;;;;;;;10.10;7.00;;;2.80;99.90;;;;;;5091968;28;20228;-67
2023/04/03 07:23:11;;;;;;;8.53;6.77;;;2.80;99.90;;;;;;5093437;28;20266;-67
2023/04/03 07:25:42;;;;;;;8.07;7.27;;;3.00;99.90;;;;;;5092034;28;20215;-67
2023/04/03 07:28:08;;;;;;;13.30;7.17;;;3.00;99.90;;;;;;5093139;28;20204;-67
2023/04/03 07:30:34;;;;;;;7.80;7.07;;;3.10;99.90;;;;;;5093224;28;20295;-69
2023/04/03 07:33:00;;;;;;;9.13;7.67;;;3.10;99.90;;;;;;5093410;28;20207;-69
2023/04/03 07:35:26;;;;;;;10.20;7.43;;;3.20;99.90;;;;;;5093075;28;20702;-72
2023/04/03 07:37:53;;;;;;;8.93;7.20;;;3.30;99.90;;;;;;5093274;28;20177;-72
2023/04/03 07:40:18;;;;;;;9.63;6.90;;;3.40;99.90;;;;;;5093164;28;20554;-72
2023/04/03 07:42:44;;;;;;;8.00;7.20;;;3.40;99.90;;;;;;5091840;28;20264;-72
2023/04/03 07:45:10;;;;;;;8.23;7.30;;;3.50;99.90;;;;;;5093037;28;20529;-72
2023/04/03 07:47:36;;;;;;;7.97;7.17;;;3.50;99.90;;;;;;5093119;28;20209;-72
2023/04/03 07:50:02;;;;;;;8.40;6.00;;;3.70;99.90;;;;;;5092991;28;20223;-72
2023/04/03 07:52:28;;;;;;;7.53;6.90;;;3.70;99.90;;;;;;5095786;28;20235;-72
2023/04/03 07:54:53;;;;;;;8.67;7.03;;;3.80;99.90;;;;;;5097294;28;20201;-72
2023/04/03 07:57:19;;;;;;;8.17;7.03;;;3.90;99.90;;;;;;5096502;28;20205;-72
2023/04/03 07:59:45;;;;;;;7.43;6.73;;;3.90;99.90;;;;;;5096539;28;20618;-72
2023/04/03 08:02:11;;;;;;;8.73;6.93;;;3.90;99.90;;;;;;5096754;28;20222;-72
2023/04/03 08:04:37;;;;;;;7.47;6.83;;;4.10;99.90;;;;;;5095358;28;20638;-72
2023/04/03 08:07:03;;;;;;;9.37;7.03;;;4.20;99.90;;;;;;5096991;28;20165;-72
2023/04/03 08:09:29;;;;;;;9.80;6.63;;;4.30;99.90;;;;;;5096446;28;20173;-71
2023/04/03 08:11:55;;;;;;;9.17;6.53;;;4.40;99.90;;;;;;5096433;28;20222;-71
2023/04/03 08:14:21;;;;;;;10.03;6.50;;;4.50;99.90;;;;;;5094830;28;20233;-72
2023/04/03 08:16:48;;;;;;;11.47;6.87;;;4.50;99.90;;;;;;5095130;28;20284;-72
2023/04/03 08:19:16;;;;;;;7.77;6.43;;;4.60;99.90;;;;;;5094953;28;20672;-72
2023/04/03 08:21:42;;;;;;;8.13;6.43;;;4.50;99.90;;;;;;5096242;28;20729;-72
2023/04/03 08:24:08;;;;;;;8.20;6.80;;;4.60;99.90;;;;;;5096194;28;20182;-72
2023/04/03 08:26:35;;;;;;;7.53;6.80;;;4.70;99.90;;;;;;5096385;28;20177;-72
2023/04/03 08:29:01;;;;;;;8.70;6.47;;;4.70;99.90;;;;;;5094611;28;20231;-72
2023/04/03 08:31:27;;;;;;;11.43;6.80;;;4.80;99.90;;;;;;5095957;28;20268;-72
2023/04/03 08:33:53;;;;;;;8.43;6.33;;;4.80;99.90;;;;;;5096343;28;20188;-72
2023/04/03 08:36:25;;;;;;;13.03;7.37;;;4.90;99.90;;;;;;5096007;28;20174;-72
2023/04/03 08:38:53;;;;;;;12.83;7.50;;;5.10;99.90;;;;;;5095926;28;20181;-72
2023/04/03 08:41:30;;;;;;;8.80;7.00;;;5.20;99.90;;;;;;5095717;28;20200;-68
2023/04/03 08:44:05;;;;;;;10.37;7.30;;;5.20;99.90;;;;;;5094301;28;20187;-67
2023/04/03 08:46:39;;;;;;;8.27;6.90;;;5.40;99.90;;;;;;5095855;28;20177;-68
2023/04/03 08:49:16;;;;;;;12.50;6.27;;;5.50;99.90;;;;;;5094309;28;20654;-68
2023/04/03 08:51:48;;;;;;;7.70;6.90;;;5.60;99.90;;;;;;5095497;28;20196;-67
2023/04/03 08:54:28;;;;;;;6.77;6.20;;;5.50;99.90;;;;;;5095502;28;20211;-67
2023/04/03 08:56:55;;;;;;;10.47;6.83;;;5.60;99.90;;;;;;5094191;28;20172;-67
2023/04/03 08:59:28;;;;;;;7.50;6.60;;;5.70;99.90;;;;;;5095236;28;20323;-67
2023/04/03 09:01:55;;;;;;;8.17;6.47;;;5.70;99.90;;;;;;5095655;28;20161;-67
2023/04/03 09:04:21;;;;;;;10.67;6.40;;;5.80;99.90;;;;;;5094432;28;20189;-67
2023/04/03 09:06:56;;;;;;;9.47;6.07;;;5.90;99.90;;;;;;5095678;28;20173;-67
2023/04/03 09:09:40;;;;;;;6.50;5.90;;;6.00;99.90;;;;;;5095389;28;20207;-67
2023/04/03 09:12:26;;;;;;;6.63;5.60;;;6.30;99.90;;;;;;5095469;28;20153;-67
2023/04/03 09:14:57;;;;;;;6.60;5.90;;;6.30;99.90;;;;;;5095554;28;20166;-69
2023/04/03 09:17:45;;;;;;;6.67;5.97;;;6.60;99.90;;;;;;5094174;28;20605;-69
2023/04/03 09:20:16;;;;;;;7.13;6.07;;;6.60;99.90;;;;;;5095287;28;20188;-68
2023/04/03 09:22:44;;;;;;;6.00;5.50;;;6.60;99.90;;;;;;5095197;28;20532;-69
2023/04/03 09:25:21;;;;;;;8.70;6.00;;;6.60;99.90;;;;;;5095582;28;20154;-69
2023/04/03 09:27:47;;;;;;;6.80;6.10;;;6.80;99.90;;;;;;5094987;28;20201;-70
2023/04/03 09:30:19;;;;;;;9.40;6.50;;;6.90;99.90;;;;;;5094692;28;20193;-70
2023/04/03 09:32:48;;;;;;;6.67;6.07;;;7.10;99.90;;;;;;5093566;28;20181;-70
2023/04/03 09:35:14;;;;;;;5.90;5.37;;;7.10;99.90;;;;;;5094856;28;20177;-69
2023/04/03 09:37:46;;;;;;;6.37;5.43;;;7.20;99.90;;;;;;5093469;28;20184;-69
2023/04/03 09:40:29;;;;;;;6.03;5.43;;;7.10;99.90;;;;;;5093385;28;20724;-69
2023/04/03 09:43:00;;;;;;;8.60;5.77;;;7.30;99.90;;;;;;5093399;28;20188;-70
2023/04/03 09:45:35;;;;;;;5.70;5.30;;;7.30;99.90;;;;;;5093218;28;20540;-70
2023/04/03 09:48:13;;;;;;;6.47;5.87;;;7.30;99.90;;;;;;5093190;28;20208;-70
2023/04/03 09:50:59;;;;;;;5.50;5.00;;;7.20;99.90;;;;;;5094440;28;20193;-69
2023/04/03 09:53:40;;;;;;;6.43;5.70;;;7.30;99.90;;;;;;5094676;28;20252;-69
2023/04/03 09:56:20;;;;;;;5.80;5.20;;;7.30;99.90;;;;;;5094878;28;20158;-69
2023/04/03 09:59:08;;;;;;;5.87;5.27;;;7.30;99.90;;;;;;5093982;28;20192;-67
2023/04/03 10:01:39;;;;;;;5.77;5.27;;;7.40;99.90;;;;;;5094500;28;20291;-67
2023/04/03 10:04:16;;;;;;;5.90;4.90;;;7.50;99.90;;;;;;5094175;28;20176;-71
2023/04/03 10:06:47;;;;;;;5.93;4.93;;;7.50;99.90;;;;;;5093013;28;20558;-72
2023/04/03 10:09:32;;;;;;;5.43;5.00;;;7.50;99.90;;;;;;5094191;28;20258;-72
2023/04/03 10:12:08;;;;;;;5.50;5.00;;;7.60;99.90;;;;;;5094225;28;20182;-71
2023/04/03 10:14:41;;;;;;;5.90;4.97;;;7.60;99.90;;;;;;5093680;28;20169;-71
2023/04/03 10:17:23;;;;;;;5.33;4.90;;;7.60;99.90;;;;;;5092964;28;20177;-71
2023/04/03 10:19:48;;;;;;;5.67;4.60;;;7.60;99.90;;;;;;5093042;28;20542;-71
2023/04/03 10:22:32;;;;;;;7.13;4.77;;;7.50;99.90;;;;;;5093998;28;20207;-71
2023/04/03 10:25:30;;;;;;;5.17;4.67;;;7.50;99.90;;;;;;5094121;28;20165;-71
2023/04/03 10:28:00;;;;;;;4.80;4.50;;;7.50;99.90;;;;;;5094419;28;20638;-72
2023/04/03 10:30:32;;;;;;;4.53;4.20;;;7.50;99.90;;;;;;5094276;28;20193;-72
2023/04/03 10:33:06;;;;;;;4.90;4.50;;;7.60;99.90;;;;;;5095519;28;20534;-71
2023/04/03 10:35:49;;;;;;;5.00;4.50;;;7.60;99.90;;;;;;5094891;28;20169;-72
2023/04/03 10:38:31;;;;;;;4.90;4.50;;;7.60;99.90;;;;;;5096510;28;20519;-71
2023/04/03 10:41:10;;;;;;;7.43;4.93;;;7.70;99.90;;;;;;5094758;28;20196;-71
2023/04/03 10:43:42;;;;;;;4.77;4.37;;;7.90;99.90;;;;;;5092423;28;20169;-71
2023/04/03 10:46:35;;;;;;;5.00;4.60;;;7.90;99.90;;;;;;5093993;28;20207;-71
2023/04/03 10:49:25;;;;;;;4.60;4.30;;;7.90;99.90;;;;;;5093927;28;20673;-72
2023/04/03 10:52:06;;;;;;;5.20;4.80;;;8.00;99.90;;;;;;5092462;28;20169;-72
2023/04/03 10:55:10;;;;;;;5.00;4.40;;;8.10;99.90;;;;;;5093918;28;20215;-72
2023/04/03 10:57:37;;;;;;;4.50;4.20;;;8.00;99.90;;;;;;5093314;28;20222;-72
2023/04/03 11:00:21;;;;;;;4.60;4.20;;;8.10;99.90;;;;;;5093284;28;20203;-72
2023/04/03 11:02:56;;;;;;;5.33;4.83;;;8.20;99.90;;;;;;5093788;28;20238;-71
2023/04/03 11:05:39;;;;;;;4.90;4.50;;;8.10;99.90;;;;;;5093494;28;20255;-72
2023/04/03 11:08:31;;;;;;;5.63;4.70;;;8.20;99.90;;;;;;5092287;28;20189;-72
2023/04/03 11:11:11;;;;;;;4.80;4.40;;;8.40;99.90;;;;;;5089471;28;20220;-72
2023/04/03 11:13:46;;;;;;;4.73;4.43;;;8.60;99.90;;;;;;5093800;28;20168;-72
2023/04/03 11:16:22;;;;;;;4.87;4.47;;;8.70;99.90;;;;;;5092303;28;20652;-72
2023/04/03 11:19:04;;;;;;;6.33;4.43;;;8.70;99.90;;;;;;5093372;28;20169;-72
2023/04/03 11:21:39;;;;;;;6.03;4.30;;;8.80;99.90;;;;;;5093790;28;20703;-70
2023/04/03 11:24:11;;;;;;;5.03;4.60;;;8.90;99.90;;;;;;5093098;28;20597;-70
2023/04/03 11:26:42;;;;;;;5.43;4.10;;;8.80;99.90;;;;;;5094297;28;20614;-69
2023/04/03 11:29:16;;;;;;;4.87;4.27;;;9.00;99.90;;;;;;5097064;28;20713;-70
2023/04/03 11:32:01;;;;;;;8.37;4.73;;;9.20;99.90;;;;;;5097323;28;20192;-70
2023/04/03 11:34:40;;;;;;;4.53;4.10;;;9.30;99.90;;;;;;5097094;28;20544;-70
2023/04/03 11:37:29;;;;;;;4.70;4.27;;;9.40;99.90;;;;;;5095767;28;20183;-70
2023/04/03 11:40:00;;;;;;;6.27;4.07;;;9.50;99.90;;;;;;5097434;28;20670;-69
2023/04/03 11:42:45;;;;;;;4.77;3.70;;;9.50;99.90;;;;;;5096990;28;20307;-69
2023/04/03 11:45:36;;;;;;;5.50;4.10;;;9.50;99.90;;;;;;5095573;28;20523;-70
2023/04/03 11:48:26;;;;;;;5.63;4.17;;;9.60;99.90;;;;;;5097267;28;20266;-69
2023/04/03 11:50:51;;;;;;;6.30;4.50;;;9.50;99.90;;;;;;5095317;28;20249;-70
2023/04/03 11:53:28;;;;;;;4.80;4.30;;;9.70;99.90;;;;;;5095470;28;20262;-70
2023/04/03 11:55:56;;;;;;;4.30;3.90;;;9.80;99.90;;;;;;5095477;28;20169;-70
2023/04/03 11:58:31;;;;;;;4.47;4.10;;;10.10;99.90;;;;;;5095205;28;20197;-70
2023/04/03 12:01:06;;;;;;;4.80;4.40;;;10.30;99.90;;;;;;5095348;28;20206;-70
2023/04/03 12:03:55;;;;;;;4.17;3.70;;;10.30;99.90;;;;;;5096611;28;20249;-70
2023/04/03 12:06:44;;;;;;;4.03;3.72;;;10.40;99.90;;;;;;5095304;28;20526;-70
2023/04/03 12:09:30;;;;;;;4.10;3.80;;;10.40;99.90;;;;;;5086182;28;20236;-70
2023/04/03 12:11:57;;;;;;;4.30;3.90;;;10.30;99.90;;;;;;5096741;28;20189;-70
2023/04/03 12:14:25;;;;;;;4.20;3.90;;;10.30;99.90;;;;;;5096205;28;20173;-70
2023/04/03 12:16:53;;;;;;;4.40;3.90;;;10.50;99.90;;;;;;5095065;28;20180;-70
2023/04/03 12:19:36;;;;;;;4.53;4.13;;;10.60;99.90;;;;;;5096275;28;20176;-70
2023/04/03 12:22:03;;;;;;;9.43;4.10;;;10.70;99.90;;;;;;5095269;28;20648;-71
2023/04/03 12:24:30;;;;;;;4.07;3.67;;;10.70;99.90;;;;;;5094861;28;20234;-72
2023/04/03 12:27:33;;;;;;;4.57;3.70;;;11.00;99.90;;;;;;5096451;28;20173;-72
2023/04/03 12:30:23;;;;;;;3.90;3.53;;;11.20;99.90;;;;;;5096008;28;20201;-72
2023/04/03 12:33:02;;;;;;;3.47;3.25;;;11.20;99.90;;;;;;5096428;28;20180;-72
2023/04/03 12:35:44;;;;;;;4.25;3.95;;;11.10;99.90;;;;;;5096124;28;20157;-72
2023/04/03 12:38:27;;;;;;;5.50;3.78;;;11.00;99.90;;;;;;5095815;28;20244;-72
2023/04/03 12:41:26;;;;;;;3.92;3.58;;;11.30;99.90;;;;;;5096046;28;20288;-72
2023/04/03 12:44:13;;;;;;;4.13;3.60;;;11.50;99.90;;;;;;5096073;28;20588;-72
2023/04/03 12:46:44;;;;;;;4.88;3.42;;;11.40;99.90;;;;;;5094690;28;20252;-72
2023/04/03 12:49:31;;;;;;;3.90;3.60;;;11.40;99.50;;;;;;5094476;28;20197;-72
2023/04/03 12:51:57;;;;;;;3.70;3.40;;;11.50;99.90;;;;;;5094707;28;20161;-72
2023/04/03 12:54:35;;;;;;;3.50;3.30;;;11.50;99.90;;;;;;5095993;28;20596;-72
2023/04/03 12:57:18;;;;;;;3.78;3.45;;;11.50;99.90;;;;;;5095884;28;20157;-72
2023/04/03 12:59:47;;;;;;;4.38;3.85;;;11.50;98.90;;;;;;5094381;28;20207;-70
2023/04/03 13:02:34;;;;;;;5.30;3.75;;;11.50;99.90;;;;;;5094241;28;20184;-70